sensor_id;sensor_type;location;lat;lon;timestamp;pressure;altitude;pressure_sealevel;temperature;humidity
3464;BME280;3551;41.578;24.706;2023-07-09T00:01:47;91577.94;;;17.77;93.75
3464;BME280;3551;41.578;24.706;2023-07-09T00:04:15;91563.41;;;17.71;92.63
3464;BME280;3551;41.578;24.706;2023-07-09T00:06:42;91554.66;;;17.79;93.94
3464;BME280;3551;41.578;24.706;2023-07-09T00:09:13;91564.78;;;17.91;92.23
3464;BME280;3551;41.578;24.706;2023-07-09T00:11:41;91564.88;;;17.88;92.39
3464;BME280;3551;41.578;24.706;2023-07-09T00:14:10;91547.34;;;17.64;92.65
3464;BME280;3551;41.578;24.706;2023-07-09T00:16:38;91571.28;;;17.65;92.95
3464;BME280;3551;41.578;24.706;2023-07-09T00:19:11;91551.91;;;17.51;93.32
3464;BME280;3551;41.578;24.706;2023-07-09T00:21:43;91557.66;;;17.53;93.11
3464;BME280;3551;41.578;24.706;2023-07-09T00:24:11;91546.41;;;17.54;92.21
3464;BME280;3551;41.578;24.706;2023-07-09T00:26:39;91557.75;;;17.65;91.97
3464;BME280;3551;41.578;24.706;2023-07-09T00:29:09;91554.19;;;17.20;94.21
3464;BME280;3551;41.578;24.706;2023-07-09T00:31:37;91555.72;;;17.37;93.25
3464;BME280;3551;41.578;24.706;2023-07-09T00:34:06;91544.47;;;17.55;93.36
3464;BME280;3551;41.578;24.706;2023-07-09T00:36:39;91529.63;;;17.63;95.03
3464;BME280;3551;41.578;24.706;2023-07-09T00:39:14;91544.66;;;17.48;95.56
3464;BME280;3551;41.578;24.706;2023-07-09T00:41:44;91551.41;;;17.39;95.63
3464;BME280;3551;41.578;24.706;2023-07-09T00:44:28;91546.19;;;17.16;96.38
3464;BME280;3551;41.578;24.706;2023-07-09T00:47:21;91557.91;;;17.58;95.98
3464;BME280;3551;41.578;24.706;2023-07-09T00:52:50;91552.19;;;17.56;94.85
3464;BME280;3551;41.578;24.706;2023-07-09T00:55:22;91550.81;;;17.64;93.78
3464;BME280;3551;41.578;24.706;2023-07-09T00:57:53;91540.91;;;17.74;96.23
3464;BME280;3551;41.578;24.706;2023-07-09T01:00:26;91529.59;;;17.47;92.89
3464;BME280;3551;41.578;24.706;2023-07-09T01:02:55;91548.53;;;17.14;93.54
3464;BME280;3551;41.578;24.706;2023-07-09T01:05:24;91575.00;;;17.07;94.53
3464;BME280;3551;41.578;24.706;2023-07-09T01:07:53;91564.34;;;17.16;94.64
3464;BME280;3551;41.578;24.706;2023-07-09T01:10:24;91550.50;;;16.98;95.20
3464;BME280;3551;41.578;24.706;2023-07-09T01:12:51;91559.44;;;17.11;94.86
3464;BME280;3551;41.578;24.706;2023-07-09T01:15:18;91563.16;;;17.17;94.99
3464;BME280;3551;41.578;24.706;2023-07-09T01:17:45;91556.97;;;17.16;94.31
3464;BME280;3551;41.578;24.706;2023-07-09T01:20:17;91527.25;;;17.32;98.29
3464;BME280;3551;41.578;24.706;2023-07-09T01:22:49;91567.88;;;17.29;95.59
3464;BME280;3551;41.578;24.706;2023-07-09T01:25:21;91561.97;;;17.18;94.51
3464;BME280;3551;41.578;24.706;2023-07-09T01:27:48;91551.81;;;16.18;100.00
3464;BME280;3551;41.578;24.706;2023-07-09T01:30:19;91565.88;;;16.09;100.00
3464;BME280;3551;41.578;24.706;2023-07-09T01:32:48;91579.69;;;16.11;100.00
3464;BME280;3551;41.578;24.706;2023-07-09T01:35:17;91574.50;;;16.01;100.00
3464;BME280;3551;41.578;24.706;2023-07-09T01:37:45;91538.06;;;16.12;100.00
3464;BME280;3551;41.578;24.706;2023-07-09T01:40:16;91554.94;;;16.52;100.00
3464;BME280;3551;41.578;24.706;2023-07-09T01:42:45;91560.34;;;16.72;100.00
3464;BME280;3551;41.578;24.706;2023-07-09T01:45:13;91592.72;;;17.08;100.00
3464;BME280;3551;41.578;24.706;2023-07-09T01:47:41;91597.25;;;16.95;100.00
3464;BME280;3551;41.578;24.706;2023-07-09T01:50:10;91586.13;;;16.93;100.00
3464;BME280;3551;41.578;24.706;2023-07-09T01:52:41;91565.50;;;16.27;100.00
3464;BME280;3551;41.578;24.706;2023-07-09T01:55:10;91563.31;;;16.02;100.00
3464;BME280;3551;41.578;24.706;2023-07-09T01:57:39;91573.00;;;16.19;100.00
3464;BME280;3551;41.578;24.706;2023-07-09T02:00:09;91581.56;;;16.34;100.00
3464;BME280;3551;41.578;24.706;2023-07-09T02:02:37;91561.09;;;16.53;100.00
3464;BME280;3551;41.578;24.706;2023-07-09T02:05:05;91588.59;;;16.67;100.00
3464;BME280;3551;41.578;24.706;2023-07-09T02:07:33;91596.63;;;16.71;100.00
3464;BME280;3551;41.578;24.706;2023-07-09T02:10:00;91584.66;;;16.72;100.00
3464;BME280;3551;41.578;24.706;2023-07-09T02:12:27;91549.25;;;16.30;100.00
3464;BME280;3551;41.578;24.706;2023-07-09T02:14:55;91589.09;;;16.62;100.00
3464;BME280;3551;41.578;24.706;2023-07-09T02:17:23;91621.59;;;16.95;100.00
3464;BME280;3551;41.578;24.706;2023-07-09T02:19:50;91575.97;;;16.80;100.00
3464;BME280;3551;41.578;24.706;2023-07-09T02:22:17;91588.03;;;16.76;100.00
3464;BME280;3551;41.578;24.706;2023-07-09T02:24:46;91580.09;;;16.69;100.00
3464;BME280;3551;41.578;24.706;2023-07-09T02:27:15;91604.09;;;16.99;100.00
3464;BME280;3551;41.578;24.706;2023-07-09T02:29:43;91595.72;;;16.94;100.00
3464;BME280;3551;41.578;24.706;2023-07-09T02:32:17;91604.09;;;16.99;100.00
3464;BME280;3551;41.578;24.706;2023-07-09T02:34:45;91577.47;;;16.81;100.00
3464;BME280;3551;41.578;24.706;2023-07-09T02:37:15;91598.09;;;16.92;100.00
3464;BME280;3551;41.578;24.706;2023-07-09T02:39:44;91584.56;;;16.75;100.00
3464;BME280;3551;41.578;24.706;2023-07-09T02:42:13;91567.44;;;16.66;100.00
3464;BME280;3551;41.578;24.706;2023-07-09T02:44:41;91597.97;;;16.63;100.00
3464;BME280;3551;41.578;24.706;2023-07-09T02:47:09;91579.41;;;16.65;100.00
3464;BME280;3551;41.578;24.706;2023-07-09T02:49:38;91606.00;;;16.66;100.00
3464;BME280;3551;41.578;24.706;2023-07-09T02:52:06;91609.81;;;16.85;100.00
3464;BME280;3551;41.578;24.706;2023-07-09T02:54:33;91587.09;;;16.66;100.00
3464;BME280;3551;41.578;24.706;2023-07-09T02:57:00;91603.09;;;16.57;100.00
3464;BME280;3551;41.578;24.706;2023-07-09T02:59:28;91598.03;;;16.59;100.00
3464;BME280;3551;41.578;24.706;2023-07-09T03:01:57;91599.53;;;16.96;100.00
3464;BME280;3551;41.578;24.706;2023-07-09T03:04:26;91589.44;;;16.64;100.00
3464;BME280;3551;41.578;24.706;2023-07-09T03:06:55;91615.59;;;16.67;100.00
3464;BME280;3551;41.578;24.706;2023-07-09T03:09:22;91634.06;;;16.49;99.86
3464;BME280;3551;41.578;24.706;2023-07-09T03:11:49;91621.00;;;16.48;99.85
3464;BME280;3551;41.578;24.706;2023-07-09T03:14:16;91624.66;;;16.38;99.10
3464;BME280;3551;41.578;24.706;2023-07-09T03:16:44;91637.03;;;15.76;100.00
3464;BME280;3551;41.578;24.706;2023-07-09T03:19:12;91663.56;;;16.20;100.00
3464;BME280;3551;41.578;24.706;2023-07-09T03:21:41;91615.13;;;16.33;100.00
3464;BME280;3551;41.578;24.706;2023-07-09T03:24:13;91606.66;;;16.11;100.00
3464;BME280;3551;41.578;24.706;2023-07-09T03:26:45;91600.09;;;16.32;100.00
3464;BME280;3551;41.578;24.706;2023-07-09T03:29:23;91594.63;;;16.36;100.00
3464;BME280;3551;41.578;24.706;2023-07-09T03:31:51;91624.19;;;16.62;99.08
3464;BME280;3551;41.578;24.706;2023-07-09T03:34:19;91622.00;;;16.57;98.79
3464;BME280;3551;41.578;24.706;2023-07-09T03:36:47;91621.25;;;16.93;99.96
3464;BME280;3551;41.578;24.706;2023-07-09T03:39:16;91622.22;;;16.82;99.85
3464;BME280;3551;41.578;24.706;2023-07-09T03:41:44;91629.16;;;16.64;98.81
3464;BME280;3551;41.578;24.706;2023-07-09T03:44:12;91623.88;;;16.60;98.32
3464;BME280;3551;41.578;24.706;2023-07-09T03:46:39;91603.44;;;16.59;98.77
3464;BME280;3551;41.578;24.706;2023-07-09T03:49:08;91627.25;;;16.64;96.53
3464;BME280;3551;41.578;24.706;2023-07-09T03:51:35;91604.56;;;16.22;97.78
3464;BME280;3551;41.578;24.706;2023-07-09T03:54:04;91635.41;;;16.21;98.15
3464;BME280;3551;41.578;24.706;2023-07-09T03:56:33;91604.78;;;15.89;100.00
3464;BME280;3551;41.578;24.706;2023-07-09T03:59:00;91606.19;;;15.97;100.00
3464;BME280;3551;41.578;24.706;2023-07-09T04:01:27;91628.63;;;16.13;99.78
3464;BME280;3551;41.578;24.706;2023-07-09T04:03:54;91634.78;;;16.33;99.02
3464;BME280;3551;41.578;24.706;2023-07-09T04:06:22;91613.53;;;16.55;99.19
3464;BME280;3551;41.578;24.706;2023-07-09T04:08:50;91617.63;;;16.63;98.47
3464;BME280;3551;41.578;24.706;2023-07-09T04:11:21;91619.63;;;16.59;96.58
3464;BME280;3551;41.578;24.706;2023-07-09T04:13:50;91638.53;;;16.59;97.18
3464;BME280;3551;41.578;24.706;2023-07-09T04:16:19;91634.06;;;16.88;96.60
3464;BME280;3551;41.578;24.706;2023-07-09T04:18:47;91641.25;;;16.95;95.99
3464;BME280;3551;41.578;24.706;2023-07-09T04:21:14;91630.66;;;17.20;94.82
3464;BME280;3551;41.578;24.706;2023-07-09T04:23:42;91628.19;;;18.07;90.35
3464;BME280;3551;41.578;24.706;2023-07-09T04:26:12;91597.66;;;18.76;84.68
3464;BME280;3551;41.578;24.706;2023-07-09T04:28:43;91636.41;;;19.52;78.92
3464;BME280;3551;41.578;24.706;2023-07-09T04:31:12;91621.09;;;20.05;75.18
3464;BME280;3551;41.578;24.706;2023-07-09T04:33:39;91619.03;;;20.65;74.21
3464;BME280;3551;41.578;24.706;2023-07-09T04:36:07;91637.16;;;20.47;72.06
3464;BME280;3551;41.578;24.706;2023-07-09T04:38:34;91617.19;;;20.62;69.52
3464;BME280;3551;41.578;24.706;2023-07-09T04:41:01;91605.75;;;20.89;68.08
3464;BME280;3551;41.578;24.706;2023-07-09T04:43:29;91654.81;;;20.86;68.66
3464;BME280;3551;41.578;24.706;2023-07-09T04:45:57;91636.84;;;21.41;66.13
3464;BME280;3551;41.578;24.706;2023-07-09T04:48:25;91604.22;;;21.50;64.58
3464;BME280;3551;41.578;24.706;2023-07-09T04:50:52;91613.13;;;21.90;63.47
3464;BME280;3551;41.578;24.706;2023-07-09T04:53:19;91625.88;;;22.20;63.79
3464;BME280;3551;41.578;24.706;2023-07-09T04:55:47;91598.94;;;21.55;63.02
3464;BME280;3551;41.578;24.706;2023-07-09T04:58:15;91617.13;;;21.67;62.64
3464;BME280;3551;41.578;24.706;2023-07-09T05:01:12;91639.00;;;22.04;61.62
3464;BME280;3551;41.578;24.706;2023-07-09T05:03:39;91620.56;;;22.17;62.01
3464;BME280;3551;41.578;24.706;2023-07-09T05:06:06;91638.91;;;22.53;60.18
3464;BME280;3551;41.578;24.706;2023-07-09T05:08:33;91633.75;;;22.36;60.67
3464;BME280;3551;41.578;24.706;2023-07-09T05:11:00;91635.13;;;22.32;62.05
3464;BME280;3551;41.578;24.706;2023-07-09T05:13:26;91642.69;;;22.46;61.12
3464;BME280;3551;41.578;24.706;2023-07-09T05:15:53;91641.06;;;22.67;59.45
3464;BME280;3551;41.578;24.706;2023-07-09T05:18:21;91638.00;;;22.83;58.22
3464;BME280;3551;41.578;24.706;2023-07-09T05:20:49;91644.59;;;23.27;57.18
3464;BME280;3551;41.578;24.706;2023-07-09T05:23:16;91645.75;;;23.53;56.09
3464;BME280;3551;41.578;24.706;2023-07-09T05:25:42;91648.41;;;23.12;56.67
3464;BME280;3551;41.578;24.706;2023-07-09T05:28:09;91644.72;;;23.42;55.04
3464;BME280;3551;41.578;24.706;2023-07-09T05:30:36;91649.44;;;23.74;55.36
3464;BME280;3551;41.578;24.706;2023-07-09T05:33:03;91650.34;;;24.37;54.35
3464;BME280;3551;41.578;24.706;2023-07-09T05:35:31;91644.56;;;24.97;55.38
3464;BME280;3551;41.578;24.706;2023-07-09T05:37:58;91644.13;;;24.98;52.12
3464;BME280;3551;41.578;24.706;2023-07-09T05:40:25;91657.34;;;25.29;52.27
3464;BME280;3551;41.578;24.706;2023-07-09T05:42:53;91646.28;;;24.94;52.11
3464;BME280;3551;41.578;24.706;2023-07-09T05:45:20;91648.09;;;25.27;49.88
3464;BME280;3551;41.578;24.706;2023-07-09T05:47:52;91651.59;;;25.42;48.17
3464;BME280;3551;41.578;24.706;2023-07-09T05:50:19;91648.13;;;25.56;48.18
3464;BME280;3551;41.578;24.706;2023-07-09T05:52:47;91658.47;;;25.66;48.80
3464;BME280;3551;41.578;24.706;2023-07-09T05:55:14;91653.50;;;25.65;46.97
3464;BME280;3551;41.578;24.706;2023-07-09T05:57:42;91651.56;;;25.86;49.86
3464;BME280;3551;41.578;24.706;2023-07-09T06:00:14;91639.19;;;26.45;47.46
3464;BME280;3551;41.578;24.706;2023-07-09T06:02:43;91639.75;;;26.69;45.28
3464;BME280;3551;41.578;24.706;2023-07-09T06:05:13;91636.47;;;26.86;47.10
3464;BME280;3551;41.578;24.706;2023-07-09T06:07:41;91640.63;;;27.27;46.41
3464;BME280;3551;41.578;24.706;2023-07-09T06:10:14;91632.91;;;27.51;46.92
3464;BME280;3551;41.578;24.706;2023-07-09T06:12:42;91628.78;;;27.67;47.04
3464;BME280;3551;41.578;24.706;2023-07-09T06:15:10;91628.88;;;27.78;45.33
3464;BME280;3551;41.578;24.706;2023-07-09T06:17:38;91634.50;;;27.63;45.79
3464;BME280;3551;41.578;24.706;2023-07-09T06:20:05;91622.97;;;27.59;46.93
3464;BME280;3551;41.578;24.706;2023-07-09T06:22:33;91618.75;;;27.38;47.56
3464;BME280;3551;41.578;24.706;2023-07-09T06:25:00;91620.13;;;27.22;47.46
3464;BME280;3551;41.578;24.706;2023-07-09T06:27:28;91614.31;;;27.41;46.61
3464;BME280;3551;41.578;24.706;2023-07-09T06:29:58;91616.03;;;27.64;46.14
3464;BME280;3551;41.578;24.706;2023-07-09T06:32:25;91611.97;;;27.59;46.25
3464;BME280;3551;41.578;24.706;2023-07-09T06:34:52;91614.78;;;28.02;41.88
3464;BME280;3551;41.578;24.706;2023-07-09T06:37:19;91607.69;;;28.26;43.81
3464;BME280;3551;41.578;24.706;2023-07-09T06:39:47;91605.72;;;28.32;43.82
3464;BME280;3551;41.578;24.706;2023-07-09T06:42:14;91609.59;;;28.57;42.29
3464;BME280;3551;41.578;24.706;2023-07-09T06:44:43;91613.47;;;28.82;41.25
3464;BME280;3551;41.578;24.706;2023-07-09T06:47:10;91610.22;;;28.83;42.36
3464;BME280;3551;41.578;24.706;2023-07-09T06:49:37;91602.69;;;28.73;41.48
3464;BME280;3551;41.578;24.706;2023-07-09T06:52:11;91594.00;;;29.02;41.00
3464;BME280;3551;41.578;24.706;2023-07-09T06:54:38;91603.78;;;29.14;41.21
3464;BME280;3551;41.578;24.706;2023-07-09T06:57:05;91606.53;;;29.14;40.68
3464;BME280;3551;41.578;24.706;2023-07-09T06:59:31;91600.34;;;29.30;40.93
3464;BME280;3551;41.578;24.706;2023-07-09T07:02:00;91600.38;;;29.52;38.91
3464;BME280;3551;41.578;24.706;2023-07-09T07:04:26;91595.34;;;29.29;40.52
3464;BME280;3551;41.578;24.706;2023-07-09T07:06:53;91594.28;;;29.04;39.55
3464;BME280;3551;41.578;24.706;2023-07-09T07:09:22;91597.28;;;29.12;41.54
3464;BME280;3551;41.578;24.706;2023-07-09T07:11:49;91590.81;;;29.26;40.36
3464;BME280;3551;41.578;24.706;2023-07-09T07:14:16;91588.84;;;29.60;39.03
3464;BME280;3551;41.578;24.706;2023-07-09T07:16:42;91593.84;;;29.61;39.57
3464;BME280;3551;41.578;24.706;2023-07-09T07:19:11;91599.38;;;29.44;40.04
3464;BME280;3551;41.578;24.706;2023-07-09T07:21:40;91596.34;;;29.76;39.25
3464;BME280;3551;41.578;24.706;2023-07-09T07:24:07;91588.09;;;29.81;38.92
3464;BME280;3551;41.578;24.706;2023-07-09T07:26:34;91598.66;;;29.83;39.51
3464;BME280;3551;41.578;24.706;2023-07-09T07:29:00;91597.38;;;29.89;38.19
3464;BME280;3551;41.578;24.706;2023-07-09T07:31:27;91589.09;;;29.67;38.46
3464;BME280;3551;41.578;24.706;2023-07-09T07:33:54;91593.09;;;29.77;38.89
3464;BME280;3551;41.578;24.706;2023-07-09T07:36:22;91603.38;;;29.99;39.06
3464;BME280;3551;41.578;24.706;2023-07-09T07:38:49;91594.13;;;29.91;38.29
3464;BME280;3551;41.578;24.706;2023-07-09T07:41:15;91598.84;;;30.01;37.82
3464;BME280;3551;41.578;24.706;2023-07-09T07:43:42;91589.31;;;29.80;38.36
3464;BME280;3551;41.578;24.706;2023-07-09T07:46:09;91588.38;;;29.89;35.89
3464;BME280;3551;41.578;24.706;2023-07-09T07:48:35;91581.56;;;29.95;38.75
3464;BME280;3551;41.578;24.706;2023-07-09T07:51:02;91583.56;;;30.11;37.84
3464;BME280;3551;41.578;24.706;2023-07-09T07:53:31;91582.09;;;29.94;37.78
3464;BME280;3551;41.578;24.706;2023-07-09T07:55:58;91583.28;;;30.09;37.17
3464;BME280;3551;41.578;24.706;2023-07-09T07:58:27;91583.50;;;30.28;37.54
3464;BME280;3551;41.578;24.706;2023-07-09T08:00:56;91585.31;;;30.09;37.16
3464;BME280;3551;41.578;24.706;2023-07-09T08:03:23;91583.06;;;29.96;37.64
3464;BME280;3551;41.578;24.706;2023-07-09T08:05:51;91586.81;;;30.04;38.68
3464;BME280;3551;41.578;24.706;2023-07-09T08:08:18;91581.28;;;30.10;38.37
3464;BME280;3551;41.578;24.706;2023-07-09T08:10:49;91583.56;;;29.73;38.41
3464;BME280;3551;41.578;24.706;2023-07-09T08:13:16;91592.34;;;29.77;36.98
3464;BME280;3551;41.578;24.706;2023-07-09T08:15:42;91589.09;;;29.95;36.19
3464;BME280;3551;41.578;24.706;2023-07-09T08:18:10;91586.09;;;29.93;38.79
3464;BME280;3551;41.578;24.706;2023-07-09T08:20:36;91590.56;;;30.18;37.70
3464;BME280;3551;41.578;24.706;2023-07-09T08:23:04;91586.19;;;30.61;36.05
3464;BME280;3551;41.578;24.706;2023-07-09T08:25:31;91582.72;;;30.50;37.22
3464;BME280;3551;41.578;24.706;2023-07-09T08:28:01;91584.66;;;30.66;36.86
3464;BME280;3551;41.578;24.706;2023-07-09T08:30:28;91589.94;;;30.64;35.18
3464;BME280;3551;41.578;24.706;2023-07-09T08:32:54;91588.66;;;30.65;36.95
3464;BME280;3551;41.578;24.706;2023-07-09T08:35:22;91588.97;;;30.61;37.14
3464;BME280;3551;41.578;24.706;2023-07-09T08:37:49;91586.25;;;30.45;34.23
3464;BME280;3551;41.578;24.706;2023-07-09T08:40:16;91581.72;;;30.47;37.04
3464;BME280;3551;41.578;24.706;2023-07-09T08:42:44;91579.53;;;30.87;34.13
3464;BME280;3551;41.578;24.706;2023-07-09T08:45:17;91576.25;;;30.99;35.39
3464;BME280;3551;41.578;24.706;2023-07-09T08:47:51;91573.63;;;30.66;34.62
3464;BME280;3551;41.578;24.706;2023-07-09T08:50:24;91569.03;;;30.85;34.48
3464;BME280;3551;41.578;24.706;2023-07-09T08:52:51;91561.44;;;30.97;34.83
3464;BME280;3551;41.578;24.706;2023-07-09T08:55:29;91568.09;;;30.66;35.98
3464;BME280;3551;41.578;24.706;2023-07-09T08:58:04;91570.47;;;30.97;35.04
3464;BME280;3551;41.578;24.706;2023-07-09T09:00:33;91574.50;;;30.17;31.86
3464;BME280;3551;41.578;24.706;2023-07-09T09:03:07;91571.41;;;30.53;35.00
3464;BME280;3551;41.578;24.706;2023-07-09T09:05:35;91565.88;;;30.59;35.28
3464;BME280;3551;41.578;24.706;2023-07-09T09:08:08;91570.16;;;30.54;36.13
3464;BME280;3551;41.578;24.706;2023-07-09T09:10:38;91563.81;;;30.71;36.78
3464;BME280;3551;41.578;24.706;2023-07-09T09:13:10;91569.28;;;30.82;36.43
3464;BME280;3551;41.578;24.706;2023-07-09T09:15:40;91563.13;;;30.53;37.14
3464;BME280;3551;41.578;24.706;2023-07-09T09:18:17;91568.94;;;30.50;34.22
3464;BME280;3551;41.578;24.706;2023-07-09T09:20:45;91575.81;;;30.79;34.98
3464;BME280;3551;41.578;24.706;2023-07-09T09:23:14;91574.72;;;31.04;34.86
3464;BME280;3551;41.578;24.706;2023-07-09T09:25:41;91574.16;;;30.53;33.63
3464;BME280;3551;41.578;24.706;2023-07-09T09:28:22;91579.31;;;29.27;34.65
3464;BME280;3551;41.578;24.706;2023-07-09T09:30:53;91569.03;;;29.61;36.72
3464;BME280;3551;41.578;24.706;2023-07-09T09:33:20;91578.81;;;29.40;34.99
3464;BME280;3551;41.578;24.706;2023-07-09T09:38:32;91568.94;;;28.78;39.29
3464;BME280;3551;41.578;24.706;2023-07-09T09:41:02;91561.72;;;29.08;37.84
3464;BME280;3551;41.578;24.706;2023-07-09T09:43:31;91556.72;;;29.18;37.37
3464;BME280;3551;41.578;24.706;2023-07-09T09:46:05;91565.03;;;28.47;38.88
3464;BME280;3551;41.578;24.706;2023-07-09T09:48:32;91555.94;;;28.95;39.78
3464;BME280;3551;41.578;24.706;2023-07-09T09:50:59;91553.13;;;28.73;35.00
3464;BME280;3551;41.578;24.706;2023-07-09T09:53:34;91554.66;;;28.26;35.27
3464;BME280;3551;41.578;24.706;2023-07-09T09:56:05;91555.25;;;28.41;38.68
3464;BME280;3551;41.578;24.706;2023-07-09T09:58:32;91558.28;;;28.48;39.04
3464;BME280;3551;41.578;24.706;2023-07-09T10:00:58;91553.50;;;28.49;39.39
3464;BME280;3551;41.578;24.706;2023-07-09T10:03:33;91549.38;;;28.17;39.54
3464;BME280;3551;41.578;24.706;2023-07-09T10:06:02;91552.34;;;28.08;40.34
3464;BME280;3551;41.578;24.706;2023-07-09T10:08:34;91541.09;;;28.11;39.40
3464;BME280;3551;41.578;24.706;2023-07-09T10:11:07;91542.53;;;28.01;39.08
3464;BME280;3551;41.578;24.706;2023-07-09T10:13:38;91552.00;;;27.94;36.92
3464;BME280;3551;41.578;24.706;2023-07-09T10:16:07;91547.19;;;27.84;40.75
3464;BME280;3551;41.578;24.706;2023-07-09T10:18:42;91549.22;;;27.89;41.03
3464;BME280;3551;41.578;24.706;2023-07-09T10:21:14;91552.88;;;27.75;37.79
3464;BME280;3551;41.578;24.706;2023-07-09T10:23:44;91547.75;;;27.57;37.70
3464;BME280;3551;41.578;24.706;2023-07-09T10:26:15;91541.91;;;27.80;41.65
3464;BME280;3551;41.578;24.706;2023-07-09T10:28:52;91550.28;;;27.60;40.68
3464;BME280;3551;41.578;24.706;2023-07-09T10:31:22;91536.06;;;27.67;41.19
3464;BME280;3551;41.578;24.706;2023-07-09T10:33:55;91539.44;;;27.88;41.24
3464;BME280;3551;41.578;24.706;2023-07-09T10:36:28;91545.41;;;28.23;38.89
3464;BME280;3551;41.578;24.706;2023-07-09T10:38:58;91549.53;;;28.50;40.01
3464;BME280;3551;41.578;24.706;2023-07-09T10:41:26;91547.91;;;28.91;37.89
3464;BME280;3551;41.578;24.706;2023-07-09T10:43:57;91552.22;;;29.20;38.39
3464;BME280;3551;41.578;24.706;2023-07-09T10:46:26;91546.31;;;28.57;37.30
3464;BME280;3551;41.578;24.706;2023-07-09T10:48:55;91541.56;;;28.63;38.70
3464;BME280;3551;41.578;24.706;2023-07-09T10:51:26;91539.38;;;28.78;37.99
3464;BME280;3551;41.578;24.706;2023-07-09T10:53:55;91541.66;;;29.02;35.73
3464;BME280;3551;41.578;24.706;2023-07-09T10:56:24;91533.16;;;29.06;35.67
3464;BME280;3551;41.578;24.706;2023-07-09T10:58:53;91540.94;;;29.13;33.41
3464;BME280;3551;41.578;24.706;2023-07-09T11:01:27;91538.69;;;29.06;36.70
3464;BME280;3551;41.578;24.706;2023-07-09T11:03:57;91539.69;;;29.14;37.63
3464;BME280;3551;41.578;24.706;2023-07-09T11:06:28;91538.97;;;29.30;37.42
3464;BME280;3551;41.578;24.706;2023-07-09T11:08:58;91539.72;;;29.41;37.50
3464;BME280;3551;41.578;24.706;2023-07-09T11:11:28;91533.47;;;29.46;36.48
3464;BME280;3551;41.578;24.706;2023-07-09T11:13:57;91532.47;;;29.38;36.94
3464;BME280;3551;41.578;24.706;2023-07-09T11:16:27;91529.94;;;29.40;35.12
3464;BME280;3551;41.578;24.706;2023-07-09T11:18:55;91521.16;;;29.14;34.94
3464;BME280;3551;41.578;24.706;2023-07-09T11:21:24;91524.16;;;29.05;38.44
3464;BME280;3551;41.578;24.706;2023-07-09T11:23:51;91528.88;;;28.88;38.81
3464;BME280;3551;41.578;24.706;2023-07-09T11:26:23;91531.91;;;29.01;36.85
3464;BME280;3551;41.578;24.706;2023-07-09T11:28:50;91517.88;;;29.10;35.99
3464;BME280;3551;41.578;24.706;2023-07-09T11:31:21;91514.00;;;28.58;32.69
3464;BME280;3551;41.578;24.706;2023-07-09T11:33:49;91515.31;;;28.68;33.34
3464;BME280;3551;41.578;24.706;2023-07-09T11:36:30;91516.63;;;28.89;34.03
3464;BME280;3551;41.578;24.706;2023-07-09T11:38:57;91508.91;;;28.23;33.02
3464;BME280;3551;41.578;24.706;2023-07-09T11:41:25;91513.19;;;28.35;32.51
3464;BME280;3551;41.578;24.706;2023-07-09T11:43:53;91509.56;;;28.66;35.02
3464;BME280;3551;41.578;24.706;2023-07-09T11:46:27;91511.00;;;28.56;33.38
3464;BME280;3551;41.578;24.706;2023-07-09T11:48:54;91511.41;;;28.26;30.90
3464;BME280;3551;41.578;24.706;2023-07-09T11:51:25;91508.22;;;28.44;31.33
3464;BME280;3551;41.578;24.706;2023-07-09T11:53:59;91503.53;;;28.62;35.16
3464;BME280;3551;41.578;24.706;2023-07-09T11:56:27;91506.00;;;28.48;33.30
3464;BME280;3551;41.578;24.706;2023-07-09T11:58:55;91507.72;;;28.46;35.32
3464;BME280;3551;41.578;24.706;2023-07-09T12:01:23;91497.69;;;27.78;36.45
3464;BME280;3551;41.578;24.706;2023-07-09T12:03:51;91489.34;;;28.10;35.86
3464;BME280;3551;41.578;24.706;2023-07-09T12:06:20;91491.16;;;28.29;36.86
3464;BME280;3551;41.578;24.706;2023-07-09T12:08:47;91489.44;;;28.37;37.72
3464;BME280;3551;41.578;24.706;2023-07-09T12:11:21;91494.47;;;28.39;37.38
3464;BME280;3551;41.578;24.706;2023-07-09T12:13:48;91489.50;;;27.95;37.09
3464;BME280;3551;41.578;24.706;2023-07-09T12:16:22;91486.13;;;27.69;36.74
3464;BME280;3551;41.578;24.706;2023-07-09T12:18:49;91486.16;;;27.74;37.13
3464;BME280;3551;41.578;24.706;2023-07-09T12:21:16;91491.28;;;27.56;37.31
3464;BME280;3551;41.578;24.706;2023-07-09T12:23:43;91486.06;;;27.26;37.50
3464;BME280;3551;41.578;24.706;2023-07-09T12:26:10;91486.09;;;26.95;37.92
3464;BME280;3551;41.578;24.706;2023-07-09T12:28:41;91482.91;;;26.51;39.58
3464;BME280;3551;41.578;24.706;2023-07-09T12:31:11;91483.28;;;26.38;39.39
3464;BME280;3551;41.578;24.706;2023-07-09T12:33:46;91477.09;;;26.43;39.95
3464;BME280;3551;41.578;24.706;2023-07-09T12:36:12;91463.06;;;26.61;38.99
3464;BME280;3551;41.578;24.706;2023-07-09T12:38:40;91474.34;;;26.43;38.11
3464;BME280;3551;41.578;24.706;2023-07-09T12:41:14;91468.59;;;26.41;38.18
3464;BME280;3551;41.578;24.706;2023-07-09T12:43:45;91468.94;;;26.49;37.91
3464;BME280;3551;41.578;24.706;2023-07-09T12:46:11;91467.25;;;26.82;38.37
3464;BME280;3551;41.578;24.706;2023-07-09T12:48:39;91475.53;;;26.62;37.67
3464;BME280;3551;41.578;24.706;2023-07-09T12:51:06;91469.03;;;26.60;38.35
3464;BME280;3551;41.578;24.706;2023-07-09T12:53:33;91469.34;;;26.67;37.37
3464;BME280;3551;41.578;24.706;2023-07-09T12:56:00;91470.50;;;26.81;39.13
3464;BME280;3551;41.578;24.706;2023-07-09T12:58:28;91463.31;;;26.89;39.74
3464;BME280;3551;41.578;24.706;2023-07-09T13:00:57;91465.28;;;26.83;39.73
3464;BME280;3551;41.578;24.706;2023-07-09T13:03:25;91469.41;;;26.73;40.53
3464;BME280;3551;41.578;24.706;2023-07-09T13:05:53;91468.97;;;26.54;40.17
3464;BME280;3551;41.578;24.706;2023-07-09T13:08:20;91465.09;;;26.66;40.34
3464;BME280;3551;41.578;24.706;2023-07-09T13:10:47;91454.16;;;26.72;41.93
3464;BME280;3551;41.578;24.706;2023-07-09T13:13:18;91466.56;;;26.88;41.98
3464;BME280;3551;41.578;24.706;2023-07-09T13:15:47;91467.28;;;26.62;42.16
3464;BME280;3551;41.578;24.706;2023-07-09T13:18:16;91472.72;;;26.57;40.38
3464;BME280;3551;41.578;24.706;2023-07-09T13:20:44;91471.81;;;26.40;40.48
3464;BME280;3551;41.578;24.706;2023-07-09T13:23:13;91471.44;;;26.26;40.40
3464;BME280;3551;41.578;24.706;2023-07-09T13:25:41;91468.97;;;26.28;41.75